Time;durP1;ratioP1;P1;durP2;ratioP2;P2;SDS_P1;SDS_P2;PMS_P1;PMS_P2;Temp;Humidity;BMP_temperature;BMP_pressure;BME280_temperature;BME280_humidity;BME280_pressure;Samples;Min_cycle;Max_cycle;Signal;HPM_P1;HPM_P2
2023/05/10 00:00:59;;;;;;;2.58;1.65;;;;;;;12.89;100.00;97956.22;4124595;28;20849;-46
2023/05/10 00:03:01;;;;;;;2.63;1.48;;;;;;;12.84;100.00;97958.16;4115271;28;20612;-45
2023/05/10 00:05:03;;;;;;;1.25;1.20;;;;;;;12.75;100.00;97960.66;4130641;28;20234;-45
2023/05/10 00:07:05;;;;;;;2.90;1.48;;;;;;;12.82;100.00;97963.94;4124203;28;20218;-45
2023/05/10 00:09:07;;;;;;;2.08;1.90;;;;;;;12.82;100.00;97957.59;4123300;28;20243;-45
2023/05/10 00:11:09;;;;;;;7.53;1.77;;;;;;;12.78;100.00;97962.84;4121501;28;20266;-46
2023/05/10 00:13:10;;;;;;;1.63;1.52;;;;;;;12.75;100.00;97957.91;4124605;28;20214;-46
2023/05/10 00:15:12;;;;;;;2.28;1.80;;;;;;;12.76;100.00;97954.06;4124273;28;20565;-47
2023/05/10 00:17:14;;;;;;;1.88;1.77;;;;;;;12.80;100.00;97957.91;4104567;28;20218;-45
2023/05/10 00:19:16;;;;;;;1.50;1.40;;;;;;;12.82;100.00;97952.94;4140355;28;20267;-46
2023/05/10 00:21:18;;;;;;;1.80;1.70;;;;;;;12.89;100.00;97958.97;4139952;28;20234;-45
2023/05/10 00:23:19;;;;;;;8.77;1.77;;;;;;;12.80;100.00;97957.91;4124475;28;20684;-47
2023/05/10 00:25:21;;;;;;;2.67;1.65;;;;;;;12.86;100.00;97948.56;4142094;28;20205;-46
2023/05/10 00:27:23;;;;;;;1.52;1.42;;;;;;;12.88;100.00;97949.09;4129236;28;20241;-46
2023/05/10 00:29:27;;;;;;;1.70;1.45;;;;;;;12.93;100.00;97948.25;4130448;28;20206;-47
2023/05/10 00:31:32;;;;;;;1.45;1.35;;;;;;;12.89;100.00;97953.47;4123974;28;20201;-46
2023/05/10 00:33:34;;;;;;;1.90;1.80;;;;;;;12.86;100.00;97948.56;4123389;28;20341;-46
2023/05/10 00:35:35;;;;;;;2.10;1.55;;;;;;;12.86;100.00;97951.31;4122497;28;20238;-45
2023/05/10 00:37:37;;;;;;;1.88;1.40;;;;;;;12.80;100.00;97944.19;4139244;28;20235;-45
2023/05/10 00:39:39;;;;;;;1.85;1.75;;;;;;;12.84;100.00;97952.69;4138169;28;20308;-44
2023/05/10 00:41:41;;;;;;;2.05;1.77;;;;;;;12.81;100.00;97945.81;4105344;28;20249;-44
2023/05/10 00:43:43;;;;;;;1.85;1.75;;;;;;;12.81;100.00;97939.50;4120666;28;20284;-46
2023/05/10 00:45:44;;;;;;;1.90;1.40;;;;;;;12.70;100.00;97944.19;4125136;28;20210;-44
2023/05/10 00:47:46;;;;;;;2.45;1.80;;;;;;;12.79;100.00;97948.03;4122243;28;20706;-46
2023/05/10 00:49:48;;;;;;;1.70;1.60;;;;;;;12.85;100.00;97946.88;4117191;28;20234;-46
2023/05/10 00:51:50;;;;;;;2.03;1.92;;;;;;;12.82;100.00;97946.63;4123304;28;20214;-45
2023/05/10 00:53:52;;;;;;;1.92;1.83;;;;;;;12.88;100.00;97943.59;4140272;28;20527;-46
2023/05/10 00:55:53;;;;;;;1.70;1.60;;;;;;;12.79;100.00;97947.19;4122183;28;20264;-45
2023/05/10 00:57:55;;;;;;;1.92;1.83;;;;;;;12.86;100.00;97951.31;4139149;28;20298;-46
2023/05/10 00:59:57;;;;;;;1.75;1.58;;;;;;;12.77;100.00;97952.97;4120016;28;20260;-46
2023/05/10 01:01:59;;;;;;;1.90;1.80;;;;;;;12.76;100.00;97948.56;4137323;28;20229;-46
2023/05/10 01:04:02;;;;;;;1.92;1.83;;;;;;;12.84;100.00;97958.97;4121361;28;20272;-46
2023/05/10 01:06:05;;;;;;;2.35;1.77;;;;;;;12.81;100.00;97959.53;4106583;28;20261;-45
2023/05/10 01:08:08;;;;;;;1.77;1.60;;;;;;;12.83;100.00;97960.09;4123854;28;20209;-45
2023/05/10 01:10:10;;;;;;;2.50;2.40;;;;;;;12.77;100.00;97955.69;4122342;28;20234;-45
2023/05/10 01:12:12;;;;;;;2.40;2.17;;;;;;;12.75;100.00;97957.06;4122436;28;20270;-46
2023/05/10 01:14:15;;;;;;;3.60;3.40;;;;;;;12.75;100.00;97959.81;4122006;28;20215;-46
2023/05/10 01:16:16;;;;;;;3.42;2.40;;;;;;;12.77;100.00;97961.19;4123467;28;20238;-46
2023/05/10 01:18:20;;;;;;;3.38;2.70;;;;;;;12.70;100.00;97960.66;4125336;28;20666;-46
2023/05/10 01:20:23;;;;;;;2.95;2.30;;;;;;;12.74;100.00;97955.44;4122325;28;20270;-45
2023/05/10 01:22:30;;;;;;;2.65;2.45;;;;;;;12.83;100.00;97960.09;4128899;28;20983;-48
2023/05/10 01:25:09;;;;;;;2.78;2.67;;;;;;;12.83;100.00;97956.53;4121231;28;20271;-45
2023/05/10 01:27:37;;;;;;;2.45;2.25;;;;;;;12.78;100.00;97951.03;4123803;28;20692;-45
2023/05/10 01:30:00;;;;;;;2.15;2.05;;;;;;;12.82;100.00;97955.69;4094715;28;20773;-46
2023/05/10 01:32:34;;;;;;;2.58;2.30;;;;;;;12.79;100.00;97956.25;4139079;28;20248;-46
2023/05/10 01:34:45;;;;;;;3.70;2.38;;;;;;;12.83;100.00;97957.34;4139867;28;20288;-46
2023/05/10 01:37:11;;;;;;;2.83;2.53;;;;;;;12.88;100.00;97962.81;4139082;28;21729;-46
2023/05/10 01:39:24;;;;;;;2.97;2.70;;;;;;;12.85;100.00;97965.31;4125655;28;20202;-46
2023/05/10 01:41:47;;;;;;;2.75;2.55;;;;;;;12.80;100.00;97966.16;4142446;28;20243;-47
2023/05/10 01:43:57;;;;;;;2.63;2.17;;;;;;;12.62;100.00;97969.47;4122519;28;20209;-45
2023/05/10 01:46:10;;;;;;;2.53;2.33;;;;;;;12.70;100.00;97966.16;4108871;28;20261;-45
2023/05/10 01:48:14;;;;;;;2.35;2.13;;;;;;;12.71;100.00;97970.53;4122022;28;20206;-46
2023/05/10 01:50:19;;;;;;;4.78;2.20;;;;;;;12.70;100.00;97960.66;4113342;28;20252;-46
2023/05/10 01:52:27;;;;;;;2.83;2.63;;;;;;;12.61;100.00;97959.59;4125187;28;20723;-45
2023/05/10 01:54:28;;;;;;;2.60;2.50;;;;;;;12.68;100.00;97959.28;4125446;28;20205;-44
2023/05/10 01:56:32;;;;;;;3.03;2.83;;;;;;;12.55;100.00;97974.41;4142490;28;20217;-45
2023/05/10 01:58:35;;;;;;;3.22;2.90;;;;;;;12.64;100.00;97961.75;4124917;28;20272;-47
2023/05/10 02:00:40;;;;;;;2.83;2.63;;;;;;;12.71;100.00;97972.47;4125703;28;20754;-46
2023/05/10 02:02:45;;;;;;;2.50;2.30;;;;;;;12.70;100.00;97981.81;4123783;28;20226;-45
2023/05/10 02:04:49;;;;;;;2.75;2.55;;;;;;;12.59;100.00;97983.75;4126535;28;20260;-45
2023/05/10 02:06:53;;;;;;;4.35;2.40;;;;;;;12.68;100.00;97984.81;4121546;28;20215;-46
2023/05/10 02:08:55;;;;;;;3.30;3.00;;;;;;;12.60;100.00;97988.13;4124503;28;20233;-45
2023/05/10 02:10:57;;;;;;;2.33;2.22;;;;;;;12.52;100.00;97985.94;4127349;28;20301;-45
2023/05/10 02:12:59;;;;;;;2.65;2.08;;;;;;;12.63;100.00;97990.31;4139440;28;20202;-46
2023/05/10 02:15:03;;;;;;;2.08;1.98;;;;;;;12.65;100.00;97988.09;4142260;28;20205;-45
2023/05/10 02:17:06;;;;;;;2.83;2.63;;;;;;;12.56;100.00;98000.75;4125156;28;20202;-45
2023/05/10 02:19:08;;;;;;;2.10;2.00;;;;;;;12.51;100.00;97995.25;4124105;28;20221;-44
2023/05/10 02:21:10;;;;;;;2.47;2.25;;;;;;;12.54;100.00;97994.72;4124462;28;20242;-45
2023/05/10 02:23:13;;;;;;;2.70;2.50;;;;;;;12.51;100.00;97999.94;4125211;28;21258;-46
2023/05/10 02:25:15;;;;;;;3.13;2.92;;;;;;;12.52;100.00;98001.59;4128266;28;20228;-44
2023/05/10 02:27:17;;;;;;;3.10;2.90;;;;;;;12.54;100.00;98005.69;4141319;28;20699;-48
2023/05/10 02:29:19;;;;;;;2.65;2.00;;;;;;;12.47;100.00;98002.41;4107986;28;20653;-46
2023/05/10 02:31:22;;;;;;;2.45;2.30;;;;;;;12.52;100.00;97996.94;4125830;28;20214;-46
2023/05/10 02:33:24;;;;;;;2.97;2.67;;;;;;;12.55;100.00;97996.38;4143805;28;20210;-45
2023/05/10 02:35:27;;;;;;;2.72;2.53;;;;;;;12.55;100.00;97990.88;4125638;28;20214;-46
2023/05/10 02:37:29;;;;;;;2.70;2.50;;;;;;;12.57;100.00;97996.09;4140734;28;20209;-46
2023/05/10 02:39:31;;;;;;;2.83;2.63;;;;;;;12.55;100.00;98001.84;4140295;28;20205;-46
2023/05/10 02:41:33;;;;;;;2.92;2.72;;;;;;;12.45;100.00;98001.03;4138856;28;20220;-46
2023/05/10 02:43:36;;;;;;;2.95;2.75;;;;;;;12.45;100.00;98009.28;4125921;28;20217;-46
2023/05/10 02:45:38;;;;;;;3.63;2.70;;;;;;;12.53;100.00;98004.06;4122000;28;20700;-45
2023/05/10 02:47:40;;;;;;;2.90;2.70;;;;;;;12.44;100.00;98004.88;4121314;28;20210;-46
2023/05/10 02:49:42;;;;;;;3.63;3.42;;;;;;;12.49;100.00;98008.44;4139929;28;20678;-46
2023/05/10 02:51:49;;;;;;;3.35;3.15;;;;;;;12.52;100.00;98002.41;4118987;28;20206;-45
2023/05/10 02:54:06;;;;;;;4.13;3.90;;;;;;;12.56;100.00;98002.69;4105009;28;20219;-46
2023/05/10 02:56:15;;;;;;;3.05;2.83;;;;;;;12.57;100.00;98002.38;4123439;28;20698;-46
2023/05/10 02:58:19;;;;;;;3.42;3.13;;;;;;;12.57;100.00;98005.13;4119225;28;20333;-46
2023/05/10 03:00:21;;;;;;;4.00;3.78;;;;;;;12.59;100.00;98002.97;4125420;28;20264;-46
2023/05/10 03:02:22;;;;;;;3.35;2.80;;;;;;;12.56;100.00;98002.69;4124799;28;20261;-46
2023/05/10 03:04:31;;;;;;;4.75;2.97;;;;;;;12.61;100.00;98010.91;4108383;28;20661;-45
2023/05/10 03:06:33;;;;;;;4.03;3.72;;;;;;;12.63;100.00;98003.22;4137799;28;20253;-46
2023/05/10 03:08:35;;;;;;;3.22;3.03;;;;;;;12.59;100.00;98005.72;4141057;28;20237;-47
2023/05/10 03:10:54;;;;;;;4.75;3.38;;;;;;;12.57;100.00;98005.13;4124121;28;20312;-46
2023/05/10 03:13:06;;;;;;;3.60;3.30;;;;;;;12.58;100.00;98006.78;4123812;28;20231;-46
2023/05/10 03:15:36;;;;;;;3.15;2.95;;;;;;;12.68;100.00;98009.53;4122806;28;20206;-45
2023/05/10 03:18:12;;;;;;;3.50;3.20;;;;;;;12.62;100.00;98018.88;4140260;28;20198;-46
2023/05/10 03:20:26;;;;;;;2.92;2.72;;;;;;;12.65;100.00;98018.31;4124324;28;20230;-46
2023/05/10 03:22:34;;;;;;;4.55;3.17;;;;;;;12.65;100.00;98015.56;4107107;28;20297;-46
2023/05/10 03:24:37;;;;;;;3.97;3.67;;;;;;;12.60;100.00;98015.59;4139683;28;20292;-46
2023/05/10 03:26:38;;;;;;;3.67;3.30;;;;;;;12.59;100.00;98016.69;4127301;28;20237;-46
2023/05/10 03:28:41;;;;;;;4.40;2.97;;;;;;;12.57;100.00;98021.59;4126580;28;20250;-48
2023/05/10 03:30:43;;;;;;;4.20;3.80;;;;;;;12.58;100.00;98017.75;4127889;28;20280;-46
2023/05/10 03:32:45;;;;;;;4.60;3.67;;;;;;;12.65;100.00;98025.72;4143780;28;20205;-46
2023/05/10 03:34:47;;;;;;;3.70;3.50;;;;;;;12.58;100.00;98020.50;4125682;28;20296;-46
2023/05/10 03:36:49;;;;;;;2.58;2.38;;;;;;;12.67;100.00;98021.63;4128683;28;20625;-45
2023/05/10 03:38:51;;;;;;;3.97;3.25;;;;;;;12.63;100.00;98008.72;4125399;28;20213;-45
2023/05/10 03:40:53;;;;;;;4.60;3.67;;;;;;;12.70;100.00;98017.50;4123310;28;20229;-45
2023/05/10 03:42:55;;;;;;;4.60;4.30;;;;;;;12.63;100.00;98020.50;4123052;28;20645;-46
2023/05/10 03:44:57;;;;;;;4.47;4.07;;;;;;;12.55;100.00;98018.31;4123905;28;20241;-46
2023/05/10 03:46:59;;;;;;;8.05;4.35;;;;;;;12.60;100.00;98015.59;4120789;28;20304;-44
2023/05/10 03:49:01;;;;;;;4.60;4.30;;;;;;;12.52;100.00;98013.41;4119234;28;20695;-45
2023/05/10 03:51:03;;;;;;;4.15;3.83;;;;;;;12.54;100.00;98011.19;4125217;28;20261;-45
2023/05/10 03:53:04;;;;;;;4.47;4.22;;;;;;;12.56;100.00;98008.97;4114969;28;20266;-46
2023/05/10 03:55:07;;;;;;;6.03;5.15;;;;;;;12.52;100.00;98013.41;4120648;28;20205;-47
2023/05/10 03:57:09;;;;;;;3.75;3.55;;;;;;;12.61;100.00;98011.72;4139923;28;20205;-46
2023/05/10 03:59:12;;;;;;;4.53;4.22;;;;;;;12.59;100.00;98011.19;4137697;28;20225;-45
2023/05/10 04:01:14;;;;;;;3.95;3.72;;;;;;;12.63;100.00;98014.22;4125373;28;20245;-46
2023/05/10 04:03:16;;;;;;;4.13;3.88;;;;;;;12.73;100.00;98012.28;4128303;28;20372;-45
2023/05/10 04:05:18;;;;;;;4.85;4.55;;;;;;;12.66;100.00;98009.00;4118132;28;20222;-45
2023/05/10 04:07:20;;;;;;;4.93;4.38;;;;;;;12.68;100.00;98012.28;4122794;28;20854;-48
2023/05/10 04:09:23;;;;;;;4.28;3.97;;;;;;;12.57;100.00;98016.13;4124984;28;20786;-46
2023/05/10 04:11:29;;;;;;;4.63;4.28;;;;;;;12.51;100.00;98011.72;4140031;28;20205;-48
2023/05/10 04:13:31;;;;;;;4.25;3.95;;;;;;;12.51;100.00;98016.41;4125588;28;20201;-46
2023/05/10 04:15:33;;;;;;;4.97;4.53;;;;;;;12.58;100.00;98011.47;4124806;28;20746;-46
2023/05/10 04:17:35;;;;;;;4.90;4.43;;;;;;;12.58;100.00;98006.78;4108286;28;20728;-46
2023/05/10 04:19:38;;;;;;;3.38;3.13;;;;;;;12.49;100.00;98013.94;4140615;28;20236;-46
2023/05/10 04:21:41;;;;;;;3.80;3.60;;;;;;;12.47;100.00;98013.38;4107958;28;20305;-46
2023/05/10 04:23:43;;;;;;;4.38;4.00;;;;;;;12.40;100.00;98026.56;4123030;28;20234;-47
2023/05/10 04:25:45;;;;;;;4.57;4.18;;;;;;;12.40;100.00;98025.72;4139006;28;20209;-45
2023/05/10 04:27:47;;;;;;;3.90;3.60;;;;;;;12.39;100.00;98024.91;4139252;28;20629;-46
2023/05/10 04:29:49;;;;;;;4.05;3.75;;;;;;;12.39;100.00;98024.91;4100385;28;20337;-45
2023/05/10 04:31:51;;;;;;;3.15;2.95;;;;;;;12.39;100.00;98030.41;4121351;28;20634;-46
2023/05/10 04:33:52;;;;;;;3.72;3.42;;;;;;;12.42;100.00;98035.34;4099573;28;20905;-45
2023/05/10 04:35:54;;;;;;;3.83;3.53;;;;;;;12.46;100.00;98035.59;4104146;28;20215;-46
2023/05/10 04:37:56;;;;;;;2.97;2.63;;;;;;;12.44;100.00;98038.63;4121168;28;20265;-46
2023/05/10 04:39:59;;;;;;;3.60;2.88;;;;;;;12.52;100.00;98040.84;4119106;28;20340;-45
2023/05/10 04:42:03;;;;;;;2.72;2.50;;;;;;;12.39;100.00;98035.91;4116820;28;20214;-46
2023/05/10 04:44:04;;;;;;;3.05;2.15;;;;;;;12.48;100.00;98045.22;4136085;28;20769;-45
2023/05/10 04:46:09;;;;;;;4.30;2.13;;;;;;;12.56;100.00;98047.41;4121285;28;20206;-45
2023/05/10 04:48:11;;;;;;;2.15;1.60;;;;;;;12.60;100.00;98034.78;4135878;28;20554;-46
2023/05/10 04:50:13;;;;;;;2.30;1.90;;;;;;;12.63;100.00;98047.97;4133687;28;20308;-46
2023/05/10 04:52:17;;;;;;;1.92;1.80;;;;;;;12.66;100.00;98047.44;4135055;28;20552;-45
2023/05/10 04:54:19;;;;;;;2.05;1.80;;;;;;;12.67;100.00;98045.50;4133852;28;20683;-45
2023/05/10 04:56:21;;;;;;;2.00;1.90;;;;;;;12.67;100.00;98042.75;4118143;28;20242;-46
2023/05/10 04:58:23;;;;;;;2.17;2.08;;;;;;;12.70;100.00;98047.69;4119464;28;20309;-45
2023/05/10 05:00:25;;;;;;;2.25;2.05;;;;;;;12.71;100.00;98055.63;4136391;28;20252;-45
2023/05/10 05:02:27;;;;;;;2.35;2.15;;;;;;;12.72;100.00;98050.97;4103133;28;20274;-45
2023/05/10 05:04:30;;;;;;;5.43;1.50;;;;;;;12.73;100.00;98058.94;4116665;28;20216;-45
2023/05/10 05:06:32;;;;;;;2.20;2.00;;;;;;;12.81;100.00;98066.63;4134476;28;20296;-45
2023/05/10 05:08:34;;;;;;;1.75;1.65;;;;;;;12.78;100.00;98067.16;4133451;28;20766;-45
2023/05/10 05:10:41;;;;;;;3.17;1.88;;;;;;;12.78;100.00;98067.16;4137822;28;20228;-46
2023/05/10 05:12:43;;;;;;;2.92;1.83;;;;;;;12.73;100.00;98069.94;4107300;28;20219;-45
2023/05/10 05:14:45;;;;;;;1.60;1.50;;;;;;;12.64;100.00;98077.06;4118030;28;21372;-47
2023/05/10 05:16:48;;;;;;;1.92;1.77;;;;;;;12.68;100.00;98078.16;4122412;28;20224;-45
2023/05/10 05:18:49;;;;;;;2.55;1.85;;;;;;;12.56;100.00;98079.53;4122646;28;20269;-46
2023/05/10 05:20:52;;;;;;;2.30;2.20;;;;;;;12.57;100.00;98092.97;4125334;28;20230;-46
2023/05/10 05:22:54;;;;;;;4.40;2.50;;;;;;;12.64;100.00;98082.53;4124394;28;20281;-47
2023/05/10 05:24:58;;;;;;;3.13;2.83;;;;;;;12.49;100.00;98090.78;4106891;28;20203;-46
2023/05/10 05:27:00;;;;;;;2.58;2.38;;;;;;;12.57;100.00;98090.22;4127372;28;20214;-47
2023/05/10 05:29:03;;;;;;;2.50;2.30;;;;;;;12.61;100.00;98094.09;4128597;28;20206;-46
2023/05/10 05:31:09;;;;;;;3.95;2.72;;;;;;;12.63;100.00;98102.84;4111737;28;20269;-46
2023/05/10 05:33:13;;;;;;;9.00;2.65;;;;;;;12.62;100.00;98103.97;4112993;28;20215;-47
2023/05/10 05:35:18;;;;;;;2.85;2.20;;;;;;;12.66;100.00;98096.84;4142030;28;20683;-47
2023/05/10 05:37:22;;;;;;;3.45;2.47;;;;;;;12.65;100.00;98095.16;4112604;28;20211;-47
2023/05/10 05:39:24;;;;;;;3.50;2.40;;;;;;;12.67;100.00;98095.75;4108306;28;20328;-47
2023/05/10 05:41:26;;;;;;;23.75;3.72;;;;;;;12.69;100.00;98096.28;4125956;28;20880;-47
2023/05/10 05:43:28;;;;;;;2.17;2.03;;;;;;;12.70;100.00;98092.44;4137426;28;20264;-47
2023/05/10 05:45:30;;;;;;;2.38;2.28;;;;;;;12.79;100.00;98098.19;4143223;28;21771;-46
2023/05/10 05:47:32;;;;;;;2.53;2.33;;;;;;;12.77;100.00;98103.16;4123311;28;20214;-46
2023/05/10 05:49:35;;;;;;;4.55;2.47;;;;;;;12.85;100.00;98106.16;4141571;28;20202;-45
2023/05/10 05:51:39;;;;;;;3.42;2.30;;;;;;;12.90;100.00;98097.91;4124094;28;20205;-49
2023/05/10 05:53:42;;;;;;;4.70;2.25;;;;;;;12.96;100.00;98096.84;4143051;28;20229;-48
2023/05/10 05:55:54;;;;;;;2.70;2.50;;;;;;;12.96;100.00;98101.53;4140353;28;20297;-48
2023/05/10 05:57:57;;;;;;;1.95;1.85;;;;;;;13.06;100.00;98096.88;4122615;28;20761;-46
2023/05/10 05:59:59;;;;;;;3.05;2.42;;;;;;;13.03;100.00;98086.41;4140894;28;20244;-47
2023/05/10 06:02:01;;;;;;;2.67;2.35;;;;;;;13.11;100.00;98094.09;4122448;28;20811;-46
2023/05/10 06:04:07;;;;;;;3.33;3.13;;;;;;;13.32;100.00;98087.50;4121575;28;20237;-46
2023/05/10 06:06:10;;;;;;;2.72;2.47;;;;;;;13.44;100.00;98087.19;4107229;28;20203;-48
2023/05/10 06:08:12;;;;;;;3.05;2.72;;;;;;;13.72;100.00;98095.63;4121522;28;20221;-48
2023/05/10 06:10:15;;;;;;;2.40;2.28;;;;;;;13.84;100.00;98096.09;4106515;28;20283;-46
2023/05/10 06:12:16;;;;;;;3.85;2.10;;;;;;;14.12;100.00;98087.19;4116147;28;20211;-49
2023/05/10 06:14:20;;;;;;;2.22;1.90;;;;;;;14.23;100.00;98091.56;4103204;28;20212;-48
2023/05/10 06:16:22;;;;;;;3.17;2.40;;;;;;;14.27;100.00;98098.16;4117967;28;20346;-45
2023/05/10 06:18:25;;;;;;;1.60;1.50;;;;;;;14.13;100.00;98097.09;4108664;28;20258;-45
2023/05/10 06:20:27;;;;;;;2.42;2.22;;;;;;;14.02;100.00;98112.00;4126283;28;20226;-50
2023/05/10 06:22:29;;;;;;;1.50;1.40;;;;;;;13.92;100.00;98098.28;4107933;28;20711;-47
2023/05/10 06:24:31;;;;;;;2.15;1.80;;;;;;;14.00;100.00;98108.72;4143522;28;20221;-46
2023/05/10 06:26:33;;;;;;;1.65;1.50;;;;;;;14.25;100.00;98111.38;4110470;28;22936;-46
2023/05/10 06:28:38;;;;;;;1.90;1.80;;;;;;;14.30;100.00;98114.06;4112864;28;20712;-46
2023/05/10 06:30:40;;;;;;;1.38;1.27;;;;;;;14.46;100.00;98121.16;4125465;28;20692;-46
2023/05/10 06:32:43;;;;;;;1.98;1.88;;;;;;;14.74;100.00;98120.41;4132417;28;20249;-46
2023/05/10 06:34:46;;;;;;;1.55;1.42;;;;;;;14.85;100.00;98126.69;4112947;28;21012;-46
2023/05/10 06:36:50;;;;;;;2.67;1.23;;;;;;;14.81;100.00;98120.91;4132662;28;20202;-47
2023/05/10 06:38:52;;;;;;;1.17;1.08;;;;;;;14.61;100.00;98121.06;4111227;28;20665;-51
2023/05/10 06:40:54;;;;;;;1.48;1.15;;;;;;;14.59;100.00;98136.22;4122300;28;20231;-47
2023/05/10 06:42:56;;;;;;;1.45;1.35;;;;;;;14.41;100.00;98129.44;4127170;28;20652;-48
2023/05/10 06:45:02;;;;;;;2.78;1.02;;;;;;;14.30;100.00;98118.78;4111117;28;20218;-45
2023/05/10 06:47:04;;;;;;;1.33;1.20;;;;;;;14.32;100.00;98133.06;4123789;28;20232;-45
2023/05/10 06:49:06;;;;;;;0.95;0.85;;;;;;;14.21;100.00;98131.47;4120637;28;20217;-46
2023/05/10 06:51:08;;;;;;;2.40;1.30;;;;;;;14.13;100.00;98132.88;4138432;28;20639;-45
2023/05/10 06:53:11;;;;;;;1.23;1.10;;;;;;;14.15;100.00;98133.41;4140732;28;20698;-45
2023/05/10 06:55:13;;;;;;;1.20;1.10;;;;;;;14.22;100.00;98136.69;4118842;28;20301;-46
2023/05/10 06:57:16;;;;;;;1.95;1.52;;;;;;;14.02;100.00;98134.00;4120419;28;20204;-46
2023/05/10 06:59:32;;;;;;;1.88;1.27;;;;;;;14.00;100.00;98136.22;4124836;28;20250;-46
2023/05/10 07:01:34;;;;;;;1.30;1.20;;;;;;;14.10;100.00;98138.13;4118162;28;20206;-45
2023/05/10 07:03:36;;;;;;;1.30;1.20;;;;;;;13.92;100.00;98134.06;4106634;28;20722;-46
2023/05/10 07:05:38;;;;;;;1.70;1.50;;;;;;;13.76;100.00;98140.69;4119916;28;21124;-45
2023/05/10 07:07:40;;;;;;;2.17;2.00;;;;;;;13.74;100.00;98142.91;4119052;28;20221;-44
2023/05/10 07:09:42;;;;;;;1.85;1.52;;;;;;;13.65;100.00;98149.25;4117879;28;20277;-45
2023/05/10 07:11:44;;;;;;;1.40;1.30;;;;;;;13.54;100.00;98148.47;4119177;28;20241;-47
2023/05/10 07:13:46;;;;;;;1.65;1.55;;;;;;;13.68;100.00;98149.53;4124020;28;20743;-46
2023/05/10 07:15:48;;;;;;;6.43;1.77;;;;;;;13.59;100.00;98144.88;4139352;28;20249;-46
2023/05/10 07:17:49;;;;;;;1.23;1.20;;;;;;;13.59;100.00;98145.69;4120110;28;20221;-45
2023/05/10 07:19:51;;;;;;;2.13;1.80;;;;;;;13.69;100.00;98156.66;4103296;28;20628;-44
2023/05/10 07:21:53;;;;;;;2.60;1.15;;;;;;;13.76;100.00;98151.69;4102818;28;20218;-44
2023/05/10 07:23:55;;;;;;;1.80;1.70;;;;;;;13.91;100.00;98159.91;4119356;28;20328;-45
2023/05/10 07:25:57;;;;;;;3.90;2.65;;;;;;;13.83;100.00;98156.91;4119533;28;20217;-46
2023/05/10 07:27:59;;;;;;;1.77;1.45;;;;;;;13.99;100.00;98156.59;4122458;28;20217;-45
2023/05/10 07:30:01;;;;;;;1.92;1.40;;;;;;;14.01;100.00;98159.88;4116586;28;20261;-45
2023/05/10 07:32:03;;;;;;;1.95;1.50;;;;;;;14.23;100.00;98163.09;4103377;28;21250;-45
2023/05/10 07:34:05;;;;;;;1.80;1.70;;;;;;;14.43;100.00;98163.00;4121282;28;20602;-45
2023/05/10 07:36:07;;;;;;;1.50;1.27;;;;;;;14.71;100.00;98148.53;4118471;28;20560;-45
2023/05/10 07:38:10;;;;;;;6.05;1.20;;;;;;;14.90;100.00;98155.00;4120156;28;20264;-45
2023/05/10 07:40:12;;;;;;;2.35;1.58;;;;;;;15.02;100.00;98160.19;4121206;28;20233;-45
2023/05/10 07:42:14;;;;;;;1.65;1.30;;;;;;;15.09;100.00;98158.72;4119455;28;20249;-46
2023/05/10 07:44:18;;;;;;;2.20;1.33;;;;;;;14.97;100.00;98151.94;4104685;28;20254;-46
2023/05/10 07:46:20;;;;;;;1.08;1.00;;;;;;;14.87;100.00;98155.59;4120501;28;20214;-45
2023/05/10 07:48:23;;;;;;;4.35;1.42;;;;;;;14.95;100.00;98154.97;4139525;28;20205;-45
2023/05/10 07:50:24;;;;;;;1.40;1.30;;;;;;;14.94;100.00;98161.59;4119349;28;20241;-45
2023/05/10 07:52:26;;;;;;;1.15;1.00;;;;;;;14.76;100.00;98162.28;4120893;28;20649;-46
2023/05/10 07:54:28;;;;;;;1.25;0.90;;;;;;;14.82;100.00;98161.13;4120170;28;20218;-45
2023/05/10 07:56:31;;;;;;;1.08;0.70;;;;;;;14.36;100.00;98161.69;4134073;28;20726;-47
2023/05/10 07:58:33;;;;;;;3.13;1.08;;;;;;;14.42;100.00;98166.88;4119181;28;20237;-45
2023/05/10 08:00:35;;;;;;;0.70;0.70;;;;;;;14.32;100.00;98172.44;4104463;28;20234;-46
2023/05/10 08:02:37;;;;;;;3.00;1.00;;;;;;;14.30;100.00;98166.38;4106360;28;20210;-46
2023/05/10 08:04:39;;;;;;;1.02;1.02;;;;;;;14.24;100.00;98166.69;4119112;28;21226;-45
2023/05/10 08:06:41;;;;;;;0.90;0.90;;;;;;;14.21;100.00;98175.50;4120513;28;20398;-44
2023/05/10 08:08:43;;;;;;;1.40;1.23;;;;;;;14.10;100.00;98182.13;4152836;28;20223;-45
2023/05/10 08:10:49;;;;;;;0.77;0.75;;;;;;;13.96;100.00;98179.13;4120185;28;20226;-46
2023/05/10 08:12:51;;;;;;;1.20;1.10;;;;;;;14.02;100.00;98177.19;4103857;28;20233;-46
2023/05/10 08:14:53;;;;;;;0.93;0.80;;;;;;;14.13;100.00;98181.56;4136510;28;20714;-45
2023/05/10 08:16:55;;;;;;;1.13;1.00;;;;;;;14.31;100.00;98170.78;4116641;28;20242;-45
2023/05/10 08:18:57;;;;;;;0.77;0.77;;;;;;;14.47;100.00;98175.13;4136781;28;20733;-46
2023/05/10 08:20:58;;;;;;;1.65;1.00;;;;;;;14.89;100.00;98177.34;4119116;28;20237;-46
2023/05/10 08:23:00;;;;;;;3.20;1.30;;;;;;;14.89;100.00;98178.16;4116944;28;20232;-45
2023/05/10 08:25:02;;;;;;;4.95;0.90;;;;;;;15.00;100.00;98179.75;4122645;28;20574;-45
2023/05/10 08:27:08;;;;;;;0.70;0.70;;;;;;;15.18;100.00;98181.00;4122194;28;20244;-46
2023/05/10 08:29:09;;;;;;;1.02;0.85;;;;;;;15.12;100.00;98185.72;4117346;28;20217;-46
2023/05/10 08:31:11;;;;;;;0.77;0.73;;;;;;;14.63;100.00;98184.94;4120084;28;20395;-47
2023/05/10 08:33:13;;;;;;;2.10;0.90;;;;;;;14.48;100.00;98190.53;4116783;28;20242;-46
2023/05/10 08:35:15;;;;;;;2.78;1.35;;;;;;;14.37;100.00;98197.19;4104170;28;20203;-45
2023/05/10 08:37:18;;;;;;;1.17;1.00;;;;;;;14.17;100.00;98202.72;4124134;28;20240;-44
2023/05/10 08:39:19;;;;;;;1.15;1.05;;;;;;;13.97;100.00;98205.53;4122070;28;20305;-47
2023/05/10 08:41:33;;;;;;;1.48;1.00;;;;;;;13.87;100.00;98219.34;4124015;28;20212;-46
2023/05/10 08:43:35;;;;;;;2.70;0.98;;;;;;;13.75;100.00;98210.56;4127009;28;20206;-45
2023/05/10 08:45:39;;;;;;;1.23;1.02;;;;;;;13.63;100.00;98215.50;4119653;28;20232;-45
2023/05/10 08:47:41;;;;;;;0.93;0.90;;;;;;;13.55;100.00;98212.50;4139505;28;20882;-45
2023/05/10 08:49:43;;;;;;;1.65;1.35;;;;;;;13.40;100.00;98229.84;4136442;28;20240;-45
2023/05/10 08:51:50;;;;;;;1.90;1.30;;;;;;;13.30;100.00;98224.31;4118810;28;20268;-45
2023/05/10 08:53:52;;;;;;;2.78;1.30;;;;;;;13.36;100.00;98234.22;4134791;28;20387;-45
2023/05/10 08:55:55;;;;;;;1.50;1.02;;;;;;;13.39;100.00;98225.44;4121599;28;21107;-46
2023/05/10 08:57:57;;;;;;;1.77;1.27;;;;;;;13.46;100.00;98223.25;4123234;28;20626;-45
2023/05/10 09:00:00;;;;;;;0.90;0.90;;;;;;;13.11;100.00;98225.97;4122788;28;20272;-45
2023/05/10 09:02:04;;;;;;;0.80;0.80;;;;;;;13.10;100.00;98224.31;4140168;28;20384;-46
2023/05/10 09:04:06;;;;;;;0.90;0.90;;;;;;;13.11;100.00;98225.97;4123042;28;20226;-45
2023/05/10 09:06:08;;;;;;;1.33;0.90;;;;;;;13.24;100.00;98224.63;4104846;28;20213;-45
2023/05/10 09:08:11;;;;;;;1.30;1.25;;;;;;;13.41;100.00;98226.00;4121257;28;20253;-46
2023/05/10 09:10:13;;;;;;;2.13;1.13;;;;;;;13.78;100.00;98233.94;4121026;28;20237;-45
2023/05/10 09:12:16;;;;;;;0.95;0.95;;;;;;;13.99;100.00;98236.38;4125026;28;20206;-45
2023/05/10 09:14:18;;;;;;;0.95;0.88;;;;;;;14.20;100.00;98239.91;4123269;28;20203;-46
2023/05/10 09:16:20;;;;;;;2.13;1.02;;;;;;;14.56;100.00;98239.50;4105805;28;20716;-48
2023/05/10 09:18:23;;;;;;;1.00;1.00;;;;;;;14.96;100.00;98233.78;4122945;28;20629;-45
2023/05/10 09:20:31;;;;;;;1.27;1.00;;;;;;;15.06;100.00;98239.22;4137345;28;20233;-45
2023/05/10 09:22:36;;;;;;;2.03;0.80;;;;;;;15.21;100.00;98236.38;4121339;28;20221;-46
2023/05/10 09:24:42;;;;;;;1.30;0.80;;;;;;;15.17;100.00;98235.28;4136966;28;20363;-46
2023/05/10 09:26:51;;;;;;;3.60;0.95;;;;;;;15.14;100.00;98237.78;4121544;28;20216;-45
2023/05/10 09:28:55;;;;;;;1.00;0.85;;;;;;;14.80;100.00;98246.00;4121207;28;21705;-47
2023/05/10 09:31:07;;;;;;;0.65;0.65;;;;;;;14.84;100.00;98244.31;4139421;28;20268;-46
2023/05/10 09:33:13;;;;;;;2.38;0.77;;;;;;;14.87;100.00;98257.53;4119711;28;20209;-47
2023/05/10 09:35:19;;;;;;;0.50;0.50;;;;;;;14.98;100.00;98245.34;4141932;28;20332;-46